Eborense — CSMP — position and weather

sailwx.info

Track history (hours):
 
Tides and Currents Weather Stations Pressure Air Temp Water Temp Dewpoint Dewpoint Depression Visibility Wind Speed Wind Dir Waves Ship Positions

Eborense

Last reported at 2015-Jul-01 21:32 UTC. Time now 2015-Jul-02 03:42 UTC.
Position N 38°41' W 009°12'.

Length 49 m; draft 1.2 m.

Type: Passenger vessel. MMSI: 263701750.

Date/timePositionNaut miles runAvg speedWind from/ knotsBaromVisibWave heightAir tempDewpointWater temp
2015-Jul-01 21:32N 38°41' W 009°12'1 1.1
2015-Jul-01 20:32N 38°41' W 009°14'0 0.1
2015-Jul-01 19:33N 38°41' W 009°14'2 1.7
2015-Jul-01 18:31N 38°42' W 009°12'0 0.0
2015-Jul-01 17:32N 38°42' W 009°12'0 0.0
2015-Jul-01 16:30N 38°42' W 009°12'0 0.0
2015-Jul-01 15:27N 38°42' W 009°12'0 0.3
2015-Jul-01 14:28N 38°41' W 009°12'1 0.8
2015-Jul-01 13:27N 38°41' W 009°12'1 1.1
2015-Jul-01 12:32N 38°42' W 009°12'0 0.0
2015-Jul-01 11:32N 38°42' W 009°12'0 0.0
2015-Jul-01 10:30N 38°42' W 009°12'2 2.0
2015-Jul-01 09:32N 38°40' W 009°14'2 2.0
2015-Jul-01 08:33N 38°42' W 009°12'2 0.1
2015-Jun-30 14:17N 38°41' W 009°09'0 0.0
2015-Jun-30 13:34N 38°41' W 009°09'0 0.0
2015-Jun-30 12:33N 38°41' W 009°09'0 0.0
2015-Jun-30 10:33N 38°41' W 009°09'0 0.0
2015-Jun-30 09:33N 38°41' W 009°09'0 0.0
2015-Jun-30 08:33N 38°41' W 009°09'0 0.0
2015-Jun-29 15:33N 38°41' W 009°09'0 0.0
2015-Jun-29 14:33N 38°41' W 009°09'0 0.1
2015-Jun-29 13:33N 38°41' W 009°09'0 0.1
2015-Jun-29 12:33N 38°41' W 009°09'0 0.0
2015-Jun-29 10:18N 38°41' W 009°09'0 0.0
2015-Jun-29 09:33N 38°41' W 009°09'0 0.0
2015-Jun-29 08:33N 38°41' W 009°09'0 0.2
2015-Jun-29 07:34N 38°41' W 009°09'4 4.1
2015-Jun-29 06:34N 38°41' W 009°14'1 0.9
2015-Jun-29 05:33N 38°41' W 009°13'1 0.1
2015-Jun-28 20:24N 38°42' W 009°12'2 2.3
2015-Jun-28 19:33N 38°40' W 009°14'0 0.1
2015-Jun-28 18:32N 38°41' W 009°14'2 2.0
2015-Jun-28 17:33N 38°42' W 009°12'0 0.0
2015-Jun-28 16:33N 38°42' W 009°12'0 0.1
2015-Jun-28 15:33N 38°42' W 009°12'0 0.1
2015-Jun-28 14:33N 38°42' W 009°12'1 1.0
2015-Jun-28 13:33N 38°41' W 009°12'1 1.1
2015-Jun-28 12:33N 38°40' W 009°14'0 0.0
2015-Jun-28 11:33N 38°40' W 009°14'0 0.0
2015-Jun-28 10:30N 38°41' W 009°14'0 0.2
2015-Jun-28 09:29N 38°40' W 009°14'2 2.0
2015-Jun-28 08:30N 38°42' W 009°12'0 0.0
2015-Jun-28 07:31N 38°42' W 009°12'1 1.2
2015-Jun-28 06:33N 38°41' W 009°12'1 0.1
2015-Jun-27 20:33N 38°42' W 009°12'2 1.7
2015-Jun-27 19:33N 38°40' W 009°14'0 0.0
2015-Jun-27 18:33N 38°40' W 009°14'2 1.9
2015-Jun-27 17:33N 38°42' W 009°12'0 0.0
2015-Jun-27 16:33N 38°42' W 009°12'0 0.0
2015-Jun-27 15:30N 38°42' W 009°12'1 0.5
2015-Jun-27 14:28N 38°41' W 009°12'1 1.5
2015-Jun-27 13:32N 38°41' W 009°14'1 0.9
2015-Jun-27 12:33N 38°41' W 009°13'0 0.3
2015-Jun-27 11:31N 38°41' W 009°12'1 1.2
2015-Jun-27 10:32N 38°40' W 009°14'2 1.9
2015-Jun-27 09:33N 38°42' W 009°12'0 0.0
2015-Jun-27 08:33N 38°42' W 009°12'0 0.4
2015-Jun-27 07:33N 38°41' W 009°12'0 0.4
2015-Jun-27 06:33N 38°42' W 009°12'1 1.0
2015-Jun-27 05:33N 38°41' W 009°12'0 0.0
2015-Jun-26 21:32N 38°41' W 009°12'1 1.0
2015-Jun-26 20:33N 38°41' W 009°14'0 0.1
2015-Jun-26 19:33N 38°41' W 009°14'2 1.8
2015-Jun-26 18:32N 38°42' W 009°12'0 0.0
2015-Jun-26 17:30N 38°42' W 009°12'0 0.0
2015-Jun-26 16:22N 38°42' W 009°12'0 0.0
2015-Jun-26 15:32N 38°42' W 009°12'0 0.0
2015-Jun-26 14:33N 38°42' W 009°12'1 1.0
2015-Jun-26 13:32N 38°41' W 009°12'1 1.1
2015-Jun-26 12:33N 38°42' W 009°12'0 0.0
2015-Jun-26 11:33N 38°42' W 009°12'0 0.2
2015-Jun-26 10:33N 38°42' W 009°12'2 1.9
2015-Jun-26 09:33N 38°40' W 009°14'0 0.0
2015-Jun-26 08:33N 38°40' W 009°14'0 0.0
2015-Jun-26 07:32N 38°40' W 009°14'0 0.0
2015-Jun-26 06:31N 38°40' W 009°14'1 1.2
2015-Jun-26 05:33N 38°41' W 009°12'0 0.0
2015-Jun-25 21:33N 38°41' W 009°12'1 0.8
2015-Jun-25 20:33N 38°41' W 009°13'0 0.2
2015-Jun-25 19:32N 38°41' W 009°14'2 1.9
2015-Jun-25 18:33N 38°42' W 009°12'0 0.1
2015-Jun-25 17:33N 38°42' W 009°12'0 0.0
2015-Jun-25 16:32N 38°42' W 009°12'0 0.1
2015-Jun-25 15:33N 38°42' W 009°12'0 0.1
2015-Jun-25 14:32N 38°42' W 009°12'1 1.0
2015-Jun-25 13:33N 38°41' W 009°12'1 1.0
2015-Jun-25 12:30N 38°42' W 009°12'0 0.0
2015-Jun-25 11:33N 38°42' W 009°12'2 1.9
2015-Jun-25 10:33N 38°40' W 009°14'4 4.1
2015-Jun-25 09:33N 38°41' W 009°09'0 0.0
2015-Jun-24 19:33N 38°41' W 009°09'2 2.3
2015-Jun-24 18:31N 38°41' W 009°12'1 0.6
2015-Jun-24 17:33N 38°41' W 009°11'2 0.5
2015-Jun-24 13:27N 38°41' W 009°09'0 0.0
2015-Jun-24 12:33N 38°41' W 009°09'0 0.0
2015-Jun-22 11:31N 38°41' W 009°09'3 2.5
2015-Jun-22 10:32N 38°42' W 009°12'2 1.9
2015-Jun-22 09:32N 38°40' W 009°14'3 3.4
2015-Jun-22 08:34N 38°42' W 009°10'1 1.1
2015-Jun-22 07:33N 38°41' W 009°09'  
Track history (hours):
 
Tides and Currents Weather Stations Pressure Air Temp Water Temp Dewpoint Dewpoint Depression Visibility Wind Speed Wind Dir Waves Ship Positions

Eborense

Last reported at 2015-Jul-01 21:32 UTC. Time now 2015-Jul-02 03:42 UTC.
Position N 38°41' W 009°12'.

Length 49 m; draft 1.2 m.

Type: Passenger vessel. MMSI: 263701750.

Date/timePositionNaut miles runAvg speedWind from/ knotsBaromVisibWave heightAir tempDewpointWater temp
2015-Jul-01 21:32N 38°41' W 009°12'1 1.1
2015-Jul-01 20:32N 38°41' W 009°14'0 0.1
2015-Jul-01 19:33N 38°41' W 009°14'2 1.7
2015-Jul-01 18:31N 38°42' W 009°12'0 0.0
2015-Jul-01 17:32N 38°42' W 009°12'0 0.0
2015-Jul-01 16:30N 38°42' W 009°12'0 0.0
2015-Jul-01 15:27N 38°42' W 009°12'0 0.3
2015-Jul-01 14:28N 38°41' W 009°12'1 0.8
2015-Jul-01 13:27N 38°41' W 009°12'1 1.1
2015-Jul-01 12:32N 38°42' W 009°12'0 0.0
2015-Jul-01 11:32N 38°42' W 009°12'0 0.0
2015-Jul-01 10:30N 38°42' W 009°12'2 2.0
2015-Jul-01 09:32N 38°40' W 009°14'2 2.0
2015-Jul-01 08:33N 38°42' W 009°12'2 0.1
2015-Jun-30 14:17N 38°41' W 009°09'0 0.0
2015-Jun-30 13:34N 38°41' W 009°09'0 0.0
2015-Jun-30 12:33N 38°41' W 009°09'0 0.0
2015-Jun-30 10:33N 38°41' W 009°09'0 0.0
2015-Jun-30 09:33N 38°41' W 009°09'0 0.0
2015-Jun-30 08:33N 38°41' W 009°09'0 0.0
2015-Jun-29 15:33N 38°41' W 009°09'0 0.0
2015-Jun-29 14:33N 38°41' W 009°09'0 0.1
2015-Jun-29 13:33N 38°41' W 009°09'0 0.1
2015-Jun-29 12:33N 38°41' W 009°09'0 0.0
2015-Jun-29 10:18N 38°41' W 009°09'0 0.0
2015-Jun-29 09:33N 38°41' W 009°09'0 0.0
2015-Jun-29 08:33N 38°41' W 009°09'0 0.2
2015-Jun-29 07:34N 38°41' W 009°09'4 4.1
2015-Jun-29 06:34N 38°41' W 009°14'1 0.9
2015-Jun-29 05:33N 38°41' W 009°13'1 0.1
2015-Jun-28 20:24N 38°42' W 009°12'2 2.3
2015-Jun-28 19:33N 38°40' W 009°14'0 0.1
2015-Jun-28 18:32N 38°41' W 009°14'2 2.0
2015-Jun-28 17:33N 38°42' W 009°12'0 0.0
2015-Jun-28 16:33N 38°42' W 009°12'0 0.1
2015-Jun-28 15:33N 38°42' W 009°12'0 0.1
2015-Jun-28 14:33N 38°42' W 009°12'1 1.0
2015-Jun-28 13:33N 38°41' W 009°12'1 1.1
2015-Jun-28 12:33N 38°40' W 009°14'0 0.0
2015-Jun-28 11:33N 38°40' W 009°14'0 0.0
2015-Jun-28 10:30N 38°41' W 009°14'0 0.2
2015-Jun-28 09:29N 38°40' W 009°14'2 2.0
2015-Jun-28 08:30N 38°42' W 009°12'0 0.0
2015-Jun-28 07:31N 38°42' W 009°12'1 1.2
2015-Jun-28 06:33N 38°41' W 009°12'1 0.1
2015-Jun-27 20:33N 38°42' W 009°12'2 1.7
2015-Jun-27 19:33N 38°40' W 009°14'0 0.0
2015-Jun-27 18:33N 38°40' W 009°14'2 1.9
2015-Jun-27 17:33N 38°42' W 009°12'0 0.0
2015-Jun-27 16:33N 38°42' W 009°12'0 0.0
2015-Jun-27 15:30N 38°42' W 009°12'1 0.5
2015-Jun-27 14:28N 38°41' W 009°12'1 1.5
2015-Jun-27 13:32N 38°41' W 009°14'1 0.9
2015-Jun-27 12:33N 38°41' W 009°13'0 0.3
2015-Jun-27 11:31N 38°41' W 009°12'1 1.2
2015-Jun-27 10:32N 38°40' W 009°14'2 1.9
2015-Jun-27 09:33N 38°42' W 009°12'0 0.0
2015-Jun-27 08:33N 38°42' W 009°12'0 0.4
2015-Jun-27 07:33N 38°41' W 009°12'0 0.4
2015-Jun-27 06:33N 38°42' W 009°12'1 1.0
2015-Jun-27 05:33N 38°41' W 009°12'0 0.0
2015-Jun-26 21:32N 38°41' W 009°12'1 1.0
2015-Jun-26 20:33N 38°41' W 009°14'0 0.1
2015-Jun-26 19:33N 38°41' W 009°14'2 1.8
2015-Jun-26 18:32N 38°42' W 009°12'0 0.0
2015-Jun-26 17:30N 38°42' W 009°12'0 0.0
2015-Jun-26 16:22N 38°42' W 009°12'0 0.0
2015-Jun-26 15:32N 38°42' W 009°12'0 0.0
2015-Jun-26 14:33N 38°42' W 009°12'1 1.0
2015-Jun-26 13:32N 38°41' W 009°12'1 1.1
2015-Jun-26 12:33N 38°42' W 009°12'0 0.0
2015-Jun-26 11:33N 38°42' W 009°12'0 0.2
2015-Jun-26 10:33N 38°42' W 009°12'2 1.9
2015-Jun-26 09:33N 38°40' W 009°14'0 0.0
2015-Jun-26 08:33N 38°40' W 009°14'0 0.0
2015-Jun-26 07:32N 38°40' W 009°14'0 0.0
2015-Jun-26 06:31N 38°40' W 009°14'1 1.2
2015-Jun-26 05:33N 38°41' W 009°12'0 0.0
2015-Jun-25 21:33N 38°41' W 009°12'1 0.8
2015-Jun-25 20:33N 38°41' W 009°13'0 0.2
2015-Jun-25 19:32N 38°41' W 009°14'2 1.9
2015-Jun-25 18:33N 38°42' W 009°12'0 0.1
2015-Jun-25 17:33N 38°42' W 009°12'0 0.0
2015-Jun-25 16:32N 38°42' W 009°12'0 0.1
2015-Jun-25 15:33N 38°42' W 009°12'0 0.1
2015-Jun-25 14:32N 38°42' W 009°12'1 1.0
2015-Jun-25 13:33N 38°41' W 009°12'1 1.0
2015-Jun-25 12:30N 38°42' W 009°12'0 0.0
2015-Jun-25 11:33N 38°42' W 009°12'2 1.9
2015-Jun-25 10:33N 38°40' W 009°14'4 4.1
2015-Jun-25 09:33N 38°41' W 009°09'0 0.0
2015-Jun-24 19:33N 38°41' W 009°09'2 2.3
2015-Jun-24 18:31N 38°41' W 009°12'1 0.6
2015-Jun-24 17:33N 38°41' W 009°11'2 0.5
2015-Jun-24 13:27N 38°41' W 009°09'0 0.0
2015-Jun-24 12:33N 38°41' W 009°09'0 0.0
2015-Jun-22 11:31N 38°41' W 009°09'3 2.5
2015-Jun-22 10:32N 38°42' W 009°12'2 1.9
2015-Jun-22 09:32N 38°40' W 009°14'3 3.4
2015-Jun-22 08:34N 38°42' W 009°10'1 1.1
2015-Jun-22 07:33N 38°41' W 009°09'  

Dump ship's entire track history